Portada
METAR-TAF:

METAR-TAF

Aeropuertos :

Chimoio, Mozambique

latitud: 19-07S, longitud: 033-28E, altitud: 731 m

Observación

El informe se hizo hace 25 minutos, a las 21:00 UTC
Temperatura 24°C
Humedad 65%
Presión 1017 hPa
Visibilidad 10 km o más
Nubes dispersas a una altura de 1500 ft

METAR: FQCH 262100Z /////KT 9999 SCT015 24/17 Q1017

Hora: 23:25 (21:25 UTC)

Pronóstico

El informe se hizo hace 5 horas y 25 minutos, a las 16:00 UTC
Pronóstico válido del 26 a las 18 UTC al 27 a las 18 UTC
Viento 8 kt del este-noreste
Visibilidad 10 km o más
Escasas nubes a una altura de 2500 ft
Evolucionando progresivamente
del 27 a las 06 UTC al 27 a las 08 UTC
Viento 8 kt del oeste
Evolucionando progresivamente
del 27 a las 12 UTC al 27 a las 14 UTC
Viento 10 kt del sur

TAF: FQCH 261600Z 2618/2718 07008KT 9999 FEW025 TX29/2713Z TN16/2703Z BECMG 2706/2708 26008KT BECMG 2712/2714 17010KT

Observaciones y pronósticos meteorológicos de más de 4000 aeropuertos (mensajes METAR y TAF).

Los puntos amarillos y rojos representan las estaciones disponibles.

Ponga el ratón en el punto deseado para ver el nombre de la estación.

Haga clic para ver las observaciones y los pronósticos meteorológicos.

Para cambiar el mapa : haga clic en los botones verdes con una cruz de color negro para hacer un zoom, en el botón verde con un guión para alejar o en las flechas verdes para mapas adyacentes.


METAR-TAF: